Time;durP1;ratioP1;P1;durP2;ratioP2;P2;SDS_P1;SDS_P2;PMS_P1;PMS_P2;Temp;Humidity;BMP_temperature;BMP_pressure;BME280_temperature;BME280_humidity;BME280_pressure;Samples;Min_cycle;Max_cycle;Signal;HPM_P1;HPM_P2
2021/10/11 00:01:24;;;;;;;;;;;;;;;;;;4984671;28;19920;-83
2021/10/11 00:04:10;;;;;;;;;;;;;;;;;;4983241;28;20326;-83
2021/10/11 00:06:56;;;;;;;;;;;;;;;;;;4984624;28;19913;-83
2021/10/11 00:09:41;;;;;;;;;;;;;;;;;;4997328;28;19922;-83
2021/10/11 00:12:27;;;;;;;;;;;;;;;;;;4984073;28;20007;-82
2021/10/11 00:15:12;;;;;;;;;;;;;;;;;;4984322;28;19964;-83
2021/10/11 00:17:58;;;;;;;;;;;;;;;;;;4984134;28;19917;-82
2021/10/11 00:20:44;;;;;;;;;;;;;;;;;;4983894;28;20311;-82
2021/10/11 00:23:29;;;;;;;;;;;;;;;;;;4983576;28;19925;-83
2021/10/11 00:26:16;;;;;;;;;;;;;;;;;;4985151;28;20279;-83
2021/10/11 00:29:02;;;;;;;;;;;;;;;;;;4995785;28;20322;-83
2021/10/11 00:31:48;;;;;;;;;;;;;;;;;;4983487;28;19976;-83
2021/10/11 00:34:35;;;;;;;;;;;;;;;;;;4982788;28;19917;-83
2021/10/11 00:37:22;;;;;;;;;;;;;;;;;;4983657;28;20323;-83
2021/10/11 00:40:08;;;;;;;;;;;;;;;;;;4982807;28;19923;-82
2021/10/11 00:42:54;;;;;;;;;;;;;;;;;;4984177;28;20394;-83
2021/10/11 00:45:39;;;;;;;;;;;;;;;;;;4997127;28;20360;-83
2021/10/11 00:48:25;;;;;;;;;;;;;;;;;;4984965;28;19961;-83
2021/10/11 00:51:11;;;;;;;;;;;;;;;;;;4988191;28;20673;-83
2021/10/11 00:53:58;;;;;;;;;;;;;;;;;;4987511;28;20388;-83
2021/10/11 00:56:44;;;;;;;;;;;;;;;;;;4980759;28;20371;-82
2021/10/11 00:59:30;;;;;;;;;;;;;;;;;;4986298;28;19930;-83
2021/10/11 01:02:16;;;;;;;;;;;;;;;;;;4987121;28;20431;-83
2021/10/11 01:05:03;;;;;;;;;;;;;;;;;;4976358;28;19972;-83
2021/10/11 01:07:49;;;;;;;;;;;;;;;;;;4987862;28;20331;-82
2021/10/11 01:10:35;;;;;;;;;;;;;;;;;;4987078;28;19941;-82
2021/10/11 01:13:21;;;;;;;;;;;;;;;;;;4986443;28;20383;-83
2021/10/11 01:16:06;;;;;;;;;;;;;;;;;;4986248;28;19952;-83
2021/10/11 01:18:52;;;;;;;;;;;;;;;;;;4987841;28;20008;-83
2021/10/11 01:21:38;;;;;;;;;;;;;;;;;;4987524;28;19922;-83
2021/10/11 01:24:23;;;;;;;;;;;;;;;;;;4986571;28;19921;-83
2021/10/11 01:27:09;;;;;;;;;;;;;;;;;;5013222;28;20375;-84
2021/10/11 01:29:55;;;;;;;;;;;;;;;;;;4987152;28;19960;-83
2021/10/11 01:32:45;;;;;;;;;;;;;;;;;;4986463;28;19921;-84
2021/10/11 01:35:30;;;;;;;;;;;;;;;;;;4987324;28;19917;-84
2021/10/11 01:38:16;;;;;;;;;;;;;;;;;;4986556;28;19919;-84
2021/10/11 01:41:03;;;;;;;;;;;;;;;;;;4986605;28;20406;-83
2021/10/11 01:43:49;;;;;;;;;;;;;;;;;;4987178;28;20356;-83
2021/10/11 01:46:37;;;;;;;;;;;;;;;;;;4985087;28;19925;-84
2021/10/11 01:49:23;;;;;;;;;;;;;;;;;;4986325;28;20336;-84
2021/10/11 01:52:09;;;;;;;;;;;;;;;;;;4987560;28;19917;-84
2021/10/11 01:54:54;;;;;;;;;;;;;;;;;;4985688;28;19968;-84
2021/10/11 01:57:40;;;;;;;;;;;;;;;;;;4986381;28;19913;-84
2021/10/11 02:00:25;;;;;;;;;;;;;;;;;;4985869;28;20372;-84
2021/10/11 02:03:11;;;;;;;;;;;;;;;;;;4986201;28;19917;-82
2021/10/11 02:05:58;;;;;;;;;;;;;;;;;;4985762;28;19993;-83
2021/10/11 02:08:43;;;;;;;;;;;;;;;;;;4986930;28;19921;-84
2021/10/11 02:11:30;;;;;;;;;;;;;;;;;;4986281;28;19925;-84
2021/10/11 02:14:16;;;;;;;;;;;;;;;;;;4985472;28;19953;-84
2021/10/11 02:17:03;;;;;;;;;;;;;;;;;;4985693;28;20279;-84
2021/10/11 02:19:50;;;;;;;;;;;;;;;;;;5000888;28;20347;-85
2021/10/11 02:22:37;;;;;;;;;;;;;;;;;;4985648;28;19928;-83
2021/10/11 02:25:24;;;;;;;;;;;;;;;;;;4984986;28;19940;-84
2021/10/11 02:28:10;;;;;;;;;;;;;;;;;;4986142;28;19936;-85
2021/10/11 02:30:56;;;;;;;;;;;;;;;;;;4985583;28;20363;-85
2021/10/11 02:33:43;;;;;;;;;;;;;;;;;;4986448;28;19940;-85
2021/10/11 02:36:29;;;;;;;;;;;;;;;;;;4985847;28;20056;-84
2021/10/11 02:39:15;;;;;;;;;;;;;;;;;;4983946;28;19917;-85
2021/10/11 02:42:01;;;;;;;;;;;;;;;;;;4986739;28;19941;-85
2021/10/11 02:44:46;;;;;;;;;;;;;;;;;;4986610;28;20307;-85
2021/10/11 02:47:34;;;;;;;;;;;;;;;;;;4984724;28;19991;-85
2021/10/11 02:50:21;;;;;;;;;;;;;;;;;;4985490;28;20387;-85
2021/10/11 02:53:07;;;;;;;;;;;;;;;;;;4985501;28;19951;-84
2021/10/11 02:55:54;;;;;;;;;;;;;;;;;;4979892;28;19968;-84
2021/10/11 02:58:41;;;;;;;;;;;;;;;;;;4977802;28;20283;-85
2021/10/11 03:01:27;;;;;;;;;;;;;;;;;;4984926;28;19921;-84
2021/10/11 03:04:13;;;;;;;;;;;;;;;;;;4997488;28;20368;-84
2021/10/11 03:07:00;;;;;;;;;;;;;;;;;;4997884;28;19991;-84
2021/10/11 03:09:45;;;;;;;;;;;;;;;;;;4996682;28;19918;-84
2021/10/11 03:12:34;;;;;;;;;;;;;;;;;;4997297;28;19917;-84
2021/10/11 03:15:19;;;;;;;;;;;;;;;;;;4998297;28;19914;-84
2021/10/11 03:18:05;;;;;;;;;;;;;;;;;;4984850;28;19913;-84
2021/10/11 03:20:50;;;;;;;;;;;;;;;;;;4984740;28;19940;-84
2021/10/11 03:23:36;;;;;;;;;;;;;;;;;;4984745;28;20413;-83
2021/10/11 03:26:22;;;;;;;;;;;;;;;;;;4966296;28;20331;-84
2021/10/11 03:29:07;;;;;;;;;;;;;;;;;;4964893;28;19914;-84
2021/10/11 03:31:53;;;;;;;;;;;;;;;;;;4977263;28;19923;-84
2021/10/11 03:34:40;;;;;;;;;;;;;;;;;;4985274;28;19909;-84
2021/10/11 03:37:25;;;;;;;;;;;;;;;;;;4984322;28;20483;-85
2021/10/11 03:40:12;;;;;;;;;;;;;;;;;;4984838;28;20054;-84
2021/10/11 03:42:59;;;;;;;;;;;;;;;;;;4985378;28;20414;-84
2021/10/11 03:45:45;;;;;;;;;;;;;;;;;;4983376;28;19920;-84
2021/10/11 03:48:30;;;;;;;;;;;;;;;;;;4985089;28;19913;-84
2021/10/11 03:51:16;;;;;;;;;;;;;;;;;;4985126;28;19914;-84
2021/10/11 03:54:02;;;;;;;;;;;;;;;;;;4984821;28;19917;-84
2021/10/11 03:56:47;;;;;;;;;;;;;;;;;;4983921;28;20012;-84
2021/10/11 03:59:33;;;;;;;;;;;;;;;;;;4985517;28;20269;-84
2021/10/11 04:02:18;;;;;;;;;;;;;;;;;;4985055;28;19925;-83
2021/10/11 04:05:06;;;;;;;;;;;;;;;;;;4982570;28;19913;-84
2021/10/11 04:07:54;;;;;;;;;;;;;;;;;;4984314;28;20400;-84
2021/10/11 04:10:52;;;;;;;;;;;;;;;;;;4996425;28;19925;-84
2021/10/11 04:13:38;;;;;;;;;;;;;;;;;;4996865;28;19921;-84
2021/10/11 04:16:25;;;;;;;;;;;;;;;;;;4996547;28;19914;-84
2021/10/11 04:19:10;;;;;;;;;;;;;;;;;;5010928;28;20344;-84
2021/10/11 04:21:57;;;;;;;;;;;;;;;;;;4996986;28;20583;-84
2021/10/11 04:24:42;;;;;;;;;;;;;;;;;;5000045;28;20261;-84
2021/10/11 04:27:28;;;;;;;;;;;;;;;;;;4997568;28;19921;-84
2021/10/11 04:30:14;;;;;;;;;;;;;;;;;;4987564;28;19918;-83
2021/10/11 04:32:59;;;;;;;;;;;;;;;;;;5001194;28;20339;-84
2021/10/11 04:35:46;;;;;;;;;;;;;;;;;;4997513;28;19984;-84
2021/10/11 04:38:31;;;;;;;;;;;;;;;;;;5000422;28;19972;-84
2021/10/11 04:41:17;;;;;;;;;;;;;;;;;;5001492;28;19926;-84
2021/10/11 04:44:03;;;;;;;;;;;;;;;;;;5000916;28;20387;-84
2021/10/11 04:46:49;;;;;;;;;;;;;;;;;;5001624;28;19972;-84
2021/10/11 04:49:36;;;;;;;;;;;;;;;;;;5000504;28;20344;-84
2021/10/11 04:52:22;;;;;;;;;;;;;;;;;;4997222;28;20105;-83
2021/10/11 04:55:08;;;;;;;;;;;;;;;;;;4995285;28;20418;-83
2021/10/11 04:57:55;;;;;;;;;;;;;;;;;;4986414;28;19999;-84
2021/10/11 05:00:42;;;;;;;;;;;;;;;;;;4980829;28;19988;-84
2021/10/11 05:03:28;;;;;;;;;;;;;;;;;;4987708;28;19913;-83
2021/10/11 05:06:14;;;;;;;;;;;;;;;;;;5000253;28;20371;-83
2021/10/11 05:09:00;;;;;;;;;;;;;;;;;;4999959;28;19935;-84
2021/10/11 05:11:46;;;;;;;;;;;;;;;;;;4999638;28;19952;-84
2021/10/11 05:14:31;;;;;;;;;;;;;;;;;;4998482;28;19925;-83
2021/10/11 05:17:17;;;;;;;;;;;;;;;;;;4997402;28;19953;-84
2021/10/11 05:20:03;;;;;;;;;;;;;;;;;;4981623;28;20261;-84
2021/10/11 05:22:50;;;;;;;;;;;;;;;;;;4986552;28;19921;-84
2021/10/11 05:25:37;;;;;;;;;;;;;;;;;;4999758;28;20336;-84
2021/10/11 05:28:23;;;;;;;;;;;;;;;;;;4993487;28;20004;-83
2021/10/11 05:31:10;;;;;;;;;;;;;;;;;;4999193;28;20350;-84
2021/10/11 05:33:56;;;;;;;;;;;;;;;;;;4999207;28;19918;-84
2021/10/11 05:36:43;;;;;;;;;;;;;;;;;;4986534;28;19921;-84
2021/10/11 05:39:28;;;;;;;;;;;;;;;;;;4986083;28;20039;-84
2021/10/11 05:42:14;;;;;;;;;;;;;;;;;;4985753;28;19918;-83
2021/10/11 05:44:59;;;;;;;;;;;;;;;;;;4985399;28;20390;-82
2021/10/11 05:47:46;;;;;;;;;;;;;;;;;;4984350;28;19961;-83
2021/10/11 05:50:32;;;;;;;;;;;;;;;;;;4965529;28;19922;-85
2021/10/11 05:53:17;;;;;;;;;;;;;;;;;;4971323;28;19924;-84
2021/10/11 05:56:03;;;;;;;;;;;;;;;;;;4985650;28;19917;-83
2021/10/11 05:58:50;;;;;;;;;;;;;;;;;;4985509;28;20379;-84
2021/10/11 06:01:36;;;;;;;;;;;;;;;;;;4987496;28;19913;-83
2021/10/11 06:04:21;;;;;;;;;;;;;;;;;;4986679;28;20029;-84
2021/10/11 06:07:07;;;;;;;;;;;;;;;;;;4985544;28;19943;-82
2021/10/11 06:09:53;;;;;;;;;;;;;;;;;;4986903;28;19917;-83
2021/10/11 06:12:40;;;;;;;;;;;;;;;;;;4986942;28;19925;-84
2021/10/11 06:15:26;;;;;;;;;;;;;;;;;;4986111;28;20381;-84
2021/10/11 06:18:11;;;;;;;;;;;;;;;;;;5008222;28;19925;-84
2021/10/11 06:20:58;;;;;;;;;;;;;;;;;;4985785;28;20364;-83
2021/10/11 06:23:46;;;;;;;;;;;;;;;;;;4985136;28;19940;-83
2021/10/11 06:26:31;;;;;;;;;;;;;;;;;;4986271;28;19913;-83
2021/10/11 06:29:18;;;;;;;;;;;;;;;;;;4998986;28;20268;-83
2021/10/11 06:32:04;;;;;;;;;;;;;;;;;;4983038;28;20391;-83
2021/10/11 06:34:29;;;;;;;;;;;;;;;;;;4977335;28;19918;-83
2021/10/11 06:36:54;;;;;;;;;;;;;;;;;;4979093;28;19940;-84
2021/10/11 06:39:19;;;;;;;;;;;;;;;;;;4979013;28;20275;-83
2021/10/11 06:41:45;;;;;;;;;;;;;;;;;;5001757;28;19929;-83
2021/10/11 06:44:10;;;;;;;;;;;;;;;;;;4970412;28;19917;-83
2021/10/11 06:46:35;;;;;;;;;;;;;;;;;;4969045;28;20025;-83
2021/10/11 06:49:01;;;;;;;;;;;;;;;;;;4989077;28;19976;-83
2021/10/11 06:51:27;;;;;;;;;;;;;;;;;;4972041;28;19975;-83
2021/10/11 06:53:52;;;;;;;;;;;;;;;;;;4988300;28;19914;-83
2021/10/11 06:56:18;;;;;;;;;;;;;;;;;;4995535;28;19918;-83
2021/10/11 06:58:43;;;;;;;;;;;;;;;;;;4964277;28;19921;-83
2021/10/11 07:01:08;;;;;;;;;;;;;;;;;;4967800;28;19922;-83
2021/10/11 07:03:36;;;;;;;;;;;;;;;;;;4973450;28;20019;-83
2021/10/11 07:06:07;;;;;;;;;;;;;;;;;;4971058;28;19918;-83
2021/10/11 07:08:33;;;;;;;;;;;;;;;;;;4994967;28;19981;-84
2021/10/11 07:10:58;;;;;;;;;;;;;;;;;;4979151;28;20007;-83
2021/10/11 07:13:24;;;;;;;;;;;;;;;;;;4959531;28;19921;-84
2021/10/11 07:15:49;;;;;;;;;;;;;;;;;;4959691;28;19921;-84
2021/10/11 07:18:15;;;;;;;;;;;;;;;;;;4975191;28;20008;-84
2021/10/11 07:20:43;;;;;;;;;;;;;;;;;;4992938;28;19919;-83
2021/10/11 07:23:09;;;;;;;;;;;;;;;;;;4963535;28;19929;-83
2021/10/11 07:25:35;;;;;;;;;;;;;;;;;;4962218;28;19917;-82
2021/10/11 07:28:00;;;;;;;;;;;;;;;;;;4978450;28;20395;-83
2021/10/11 07:30:25;;;;;;;;;;;;;;;;;;4959321;28;19984;-83
2021/10/11 07:32:50;;;;;;;;;;;;;;;;;;4962193;28;20033;-82
2021/10/11 07:35:16;;;;;;;;;;;;;;;;;;4978463;28;19923;-83
2021/10/11 07:37:41;;;;;;;;;;;;;;;;;;4990971;28;20296;-83
2021/10/11 07:40:07;;;;;;;;;;;;;;;;;;4979303;28;20061;-82
2021/10/11 07:42:32;;;;;;;;;;;;;;;;;;4959011;28;19965;-83
2021/10/11 07:44:57;;;;;;;;;;;;;;;;;;4977099;28;19921;-82
2021/10/11 07:47:23;;;;;;;;;;;;;;;;;;4976823;28;19984;-83
2021/10/11 07:49:48;;;;;;;;;;;;;;;;;;4974895;28;19969;-83
2021/10/11 07:52:13;;;;;;;;;;;;;;;;;;4991849;28;19917;-84
2021/10/11 07:54:39;;;;;;;;;;;;;;;;;;4994388;28;19986;-84
2021/10/11 07:57:04;;;;;;;;;;;;;;;;;;4961741;28;19918;-83
2021/10/11 07:59:30;;;;;;;;;;;;;;;;;;4978725;28;19913;-83
2021/10/11 08:01:55;;;;;;;;;;;;;;;;;;4958676;28;19989;-84
2021/10/11 08:04:21;;;;;;;;;;;;;;;;;;4956937;28;19924;-84
2021/10/11 08:06:46;;;;;;;;;;;;;;;;;;4994493;28;19917;-83
2021/10/11 08:09:11;;;;;;;;;;;;;;;;;;4961795;28;20439;-83
2021/10/11 08:11:39;;;;;;;;;;;;;;;;;;4962239;28;19932;-82
2021/10/11 08:14:04;;;;;;;;;;;;;;;;;;4962390;28;20372;-83
2021/10/11 08:16:30;;;;;;;;;;;;;;;;;;4962047;28;19913;-84
2021/10/11 08:18:55;;;;;;;;;;;;;;;;;;4962043;28;19913;-83
2021/10/11 08:21:20;;;;;;;;;;;;;;;;;;4978308;28;19913;-83
2021/10/11 08:23:46;;;;;;;;;;;;;;;;;;4978205;28;19921;-83
2021/10/11 08:26:11;;;;;;;;;;;;;;;;;;4978535;28;20261;-83
2021/10/11 08:28:37;;;;;;;;;;;;;;;;;;4962149;28;20384;-83
2021/10/11 08:31:02;;;;;;;;;;;;;;;;;;4962256;28;20352;-83
2021/10/11 08:33:28;;;;;;;;;;;;;;;;;;4977926;28;19921;-82
2021/10/11 08:35:53;;;;;;;;;;;;;;;;;;4961852;28;20288;-82
2021/10/11 08:38:18;;;;;;;;;;;;;;;;;;4959330;28;19921;-83
2021/10/11 08:40:46;;;;;;;;;;;;;;;;;;4960500;28;19923;-83
2021/10/11 08:43:11;;;;;;;;;;;;;;;;;;4974117;28;19977;-84
2021/10/11 08:45:37;;;;;;;;;;;;;;;;;;4961900;28;19918;-83
2021/10/11 08:48:02;;;;;;;;;;;;;;;;;;4961673;28;19918;-87
2021/10/11 08:50:28;;;;;;;;;;;;;;;;;;4974631;28;20009;-85
2021/10/11 08:52:55;;;;;;;;;;;;;;;;;;4958849;28;20328;-84
2021/10/11 08:55:20;;;;;;;;;;;;;;;;;;4960822;28;19936;-84
2021/10/11 08:57:46;;;;;;;;;;;;;;;;;;4977667;28;19918;-84
2021/10/11 09:00:16;;;;;;;;;;;;;;;;;;4974505;28;20339;-84
2021/10/11 09:03:00;;;;;;;;;;;;;;;;;;4993350;28;19957;-84
2021/10/11 09:05:32;;;;;;;;;;;;;;;;;;4961622;28;20330;-84
2021/10/11 09:08:05;;;;;;;;;;;;;;;;;;4976983;28;19973;-84
2021/10/11 09:10:31;;;;;;;;;;;;;;;;;;4962328;28;19964;-84
2021/10/11 09:12:57;;;;;;;;;;;;;;;;;;4980841;28;19985;-85
2021/10/11 09:15:27;;;;;;;;;;;;;;;;;;4964766;28;20436;-85
2021/10/11 09:18:00;;;;;;;;;;;;;;;;;;4981493;28;19918;-85
2021/10/11 09:20:26;;;;;;;;;;;;;;;;;;4966256;28;19929;-83
2021/10/11 09:22:52;;;;;;;;;;;;;;;;;;4965649;28;19913;-81
2021/10/11 09:25:18;;;;;;;;;;;;;;;;;;4980928;28;20052;-81
2021/10/11 09:27:53;;;;;;;;;;;;;;;;;;4964448;28;20004;-82
2021/10/11 09:30:20;;;;;;;;;;;;;;;;;;4997335;28;20364;-84
2021/10/11 09:32:46;;;;;;;;;;;;;;;;;;4946303;28;19999;-86
2021/10/11 09:35:16;;;;;;;;;;;;;;;;;;4978397;28;20287;-86
2021/10/11 09:37:41;;;;;;;;;;;;;;;;;;4962507;28;19913;-87
2021/10/11 09:40:07;;;;;;;;;;;;;;;;;;4980563;28;19943;-86
2021/10/11 09:42:34;;;;;;;;;;;;;;;;;;4967142;28;20027;-86
2021/10/11 09:45:00;;;;;;;;;;;;;;;;;;4965355;28;19952;-88
2021/10/11 09:47:32;;;;;;;;;;;;;;;;;;4965752;28;20015;-87
2021/10/11 09:49:58;;;;;;;;;;;;;;;;;;4965719;28;19953;-86
2021/10/11 09:52:23;;;;;;;;;;;;;;;;;;4965228;28;19921;-86
2021/10/11 09:54:52;;;;;;;;;;;;;;;;;;4965792;28;19913;-87
2021/10/11 09:57:19;;;;;;;;;;;;;;;;;;4981681;28;19924;-87
2021/10/11 09:59:46;;;;;;;;;;;;;;;;;;4977324;28;20017;-88
2021/10/11 10:02:11;;;;;;;;;;;;;;;;;;4959513;28;19968;-86
2021/10/11 10:04:38;;;;;;;;;;;;;;;;;;4964553;28;19917;-87
2021/10/11 10:07:04;;;;;;;;;;;;;;;;;;4964599;28;19914;-84
2021/10/11 10:09:29;;;;;;;;;;;;;;;;;;4964184;28;19921;-86
2021/10/11 10:11:55;;;;;;;;;;;;;;;;;;4964361;28;19917;-85
2021/10/11 10:14:21;;;;;;;;;;;;;;;;;;4980248;28;19972;-85
2021/10/11 10:16:48;;;;;;;;;;;;;;;;;;4963673;28;20296;-84
2021/10/11 10:19:14;;;;;;;;;;;;;;;;;;4980393;28;19913;-84
2021/10/11 10:21:40;;;;;;;;;;;;;;;;;;4964576;28;20026;-84
2021/10/11 10:24:07;;;;;;;;;;;;;;;;;;4964682;28;20391;-87
2021/10/11 10:26:35;;;;;;;;;;;;;;;;;;4980779;28;20330;-86
2021/10/11 10:29:15;;;;;;;;;;;;;;;;;;4964441;28;19913;-87
2021/10/11 10:31:41;;;;;;;;;;;;;;;;;;4964626;28;19914;-87
2021/10/11 10:34:20;;;;;;;;;;;;;;;;;;4964708;28;20438;-87
2021/10/11 10:36:57;;;;;;;;;;;;;;;;;;4964441;28;19913;-87
2021/10/11 10:39:22;;;;;;;;;;;;;;;;;;4963708;28;19921;-86
2021/10/11 10:41:54;;;;;;;;;;;;;;;;;;4974519;28;20000;-86
2021/10/11 10:44:21;;;;;;;;;;;;;;;;;;4963890;28;19925;-85
2021/10/11 10:46:55;;;;;;;;;;;;;;;;;;4960488;28;20406;-86
2021/10/11 10:49:28;;;;;;;;;;;;;;;;;;4976880;28;19918;-86
2021/10/11 10:51:54;;;;;;;;;;;;;;;;;;4977339;28;19920;-87
2021/10/11 10:54:22;;;;;;;;;;;;;;;;;;4960968;28;19922;-86
2021/10/11 10:56:52;;;;;;;;;;;;;;;;;;4993598;28;19918;-88
2021/10/11 10:59:22;;;;;;;;;;;;;;;;;;4973943;28;19969;-87
2021/10/11 11:01:49;;;;;;;;;;;;;;;;;;4949898;28;20013;-87
2021/10/11 11:04:22;;;;;;;;;;;;;;;;;;4969615;28;19914;-88
2021/10/11 11:06:56;;;;;;;;;;;;;;;;;;4961081;28;19913;-88
2021/10/11 11:09:23;;;;;;;;;;;;;;;;;;4961142;28;19995;-87
2021/10/11 11:11:48;;;;;;;;;;;;;;;;;;4976614;28;19914;-86
2021/10/11 11:14:16;;;;;;;;;;;;;;;;;;4960641;28;20013;-86
2021/10/11 11:16:42;;;;;;;;;;;;;;;;;;4960452;28;19964;-87
2021/10/11 11:19:12;;;;;;;;;;;;;;;;;;4985636;28;20025;-86
2021/10/11 11:21:38;;;;;;;;;;;;;;;;;;4989829;28;19989;-87
2021/10/11 11:24:05;;;;;;;;;;;;;;;;;;4963833;28;19925;-87
2021/10/11 11:26:31;;;;;;;;;;;;;;;;;;4978952;28;19921;-84
2021/10/11 11:28:56;;;;;;;;;;;;;;;;;;4979585;28;19920;-85
2021/10/11 11:31:22;;;;;;;;;;;;;;;;;;4963129;28;19917;-84
2021/10/11 11:33:48;;;;;;;;;;;;;;;;;;4962850;28;20253;-85
2021/10/11 11:36:13;;;;;;;;;;;;;;;;;;4979335;28;19920;-83
2021/10/11 11:38:40;;;;;;;;;;;;;;;;;;4978419;28;19960;-84
2021/10/11 11:41:05;;;;;;;;;;;;;;;;;;4962689;28;19917;-85
2021/10/11 11:43:37;;;;;;;;;;;;;;;;;;4962921;28;19914;-85
2021/10/11 11:46:03;;;;;;;;;;;;;;;;;;4995151;28;19968;-85
2021/10/11 11:48:29;;;;;;;;;;;;;;;;;;4963022;28;19917;-83
2021/10/11 11:50:58;;;;;;;;;;;;;;;;;;4978812;28;19917;-84
2021/10/11 11:53:25;;;;;;;;;;;;;;;;;;4962839;28;19922;-85
2021/10/11 11:55:51;;;;;;;;;;;;;;;;;;4962660;28;19937;-83
2021/10/11 11:58:23;;;;;;;;;;;;;;;;;;4976032;28;19922;-83
2021/10/11 12:00:49;;;;;;;;;;;;;;;;;;4959214;28;20337;-84
2021/10/11 12:03:19;;;;;;;;;;;;;;;;;;4943656;28;19914;-85
2021/10/11 12:05:44;;;;;;;;;;;;;;;;;;4959582;28;19936;-83
2021/10/11 12:08:10;;;;;;;;;;;;;;;;;;4959336;28;20280;-83
2021/10/11 12:10:36;;;;;;;;;;;;;;;;;;4942772;28;20028;-83
2021/10/11 12:13:02;;;;;;;;;;;;;;;;;;4943024;28;20273;-83
2021/10/11 12:15:28;;;;;;;;;;;;;;;;;;4975242;28;19926;-83
2021/10/11 12:18:10;;;;;;;;;;;;;;;;;;4959062;28;20060;-83
2021/10/11 12:20:42;;;;;;;;;;;;;;;;;;4943069;28;19992;-83
2021/10/11 12:23:09;;;;;;;;;;;;;;;;;;4943071;28;20414;-83
2021/10/11 12:25:34;;;;;;;;;;;;;;;;;;4958858;28;20415;-83
2021/10/11 12:28:10;;;;;;;;;;;;;;;;;;4959085;28;20000;-83
2021/10/11 12:30:35;;;;;;;;;;;;;;;;;;4943171;28;19968;-83
2021/10/11 12:33:01;;;;;;;;;;;;;;;;;;4959055;28;20368;-83
2021/10/11 12:35:27;;;;;;;;;;;;;;;;;;4975022;28;19914;-83
2021/10/11 12:37:52;;;;;;;;;;;;;;;;;;4958864;28;19957;-83
2021/10/11 12:40:21;;;;;;;;;;;;;;;;;;4967795;28;19977;-83
2021/10/11 12:42:46;;;;;;;;;;;;;;;;;;4994422;28;20379;-83
2021/10/11 12:45:13;;;;;;;;;;;;;;;;;;4980572;28;19971;-83
2021/10/11 12:47:39;;;;;;;;;;;;;;;;;;4982240;28;19921;-83
2021/10/11 12:50:11;;;;;;;;;;;;;;;;;;4965739;28;19914;-83
2021/10/11 12:52:37;;;;;;;;;;;;;;;;;;4982206;28;19917;-83
2021/10/11 12:55:13;;;;;;;;;;;;;;;;;;4997771;28;20387;-83
2021/10/11 12:57:40;;;;;;;;;;;;;;;;;;4981863;28;19913;-82
2021/10/11 13:00:06;;;;;;;;;;;;;;;;;;4981439;28;19913;-83
2021/10/11 13:02:32;;;;;;;;;;;;;;;;;;4981357;28;19913;-83
2021/10/11 13:04:57;;;;;;;;;;;;;;;;;;4981836;28;19917;-83
2021/10/11 13:07:22;;;;;;;;;;;;;;;;;;4965581;28;19913;-83
2021/10/11 13:09:48;;;;;;;;;;;;;;;;;;4981280;28;19920;-82
2021/10/11 13:12:13;;;;;;;;;;;;;;;;;;4981530;28;19917;-83
2021/10/11 13:14:38;;;;;;;;;;;;;;;;;;4981346;28;19925;-83
2021/10/11 13:17:03;;;;;;;;;;;;;;;;;;4965261;28;19920;-83
2021/10/11 13:19:29;;;;;;;;;;;;;;;;;;4981534;28;19933;-83
2021/10/11 13:21:54;;;;;;;;;;;;;;;;;;4961378;28;19921;-83
2021/10/11 13:24:19;;;;;;;;;;;;;;;;;;4980802;28;20386;-83
2021/10/11 13:26:45;;;;;;;;;;;;;;;;;;4965263;28;19917;-83
2021/10/11 13:29:34;;;;;;;;;;;;;;;;;;4981238;28;19914;-83
2021/10/11 14:26:30;;;;;;;;;;;;;;;;;;4962571;28;20387;-83
2021/10/11 14:29:05;;;;;;;;;;;;;;;;;;4977414;28;19913;-83
2021/10/11 16:04:21;;;;;;;;;;;;;;;;;;4996428;28;19917;-83
2021/10/11 16:06:46;;;;;;;;;;;;;;;;;;4984825;28;19982;-83
2021/10/11 16:09:11;;;;;;;;;;;;;;;;;;4984136;28;19972;-83
2021/10/11 16:11:37;;;;;;;;;;;;;;;;;;4978418;28;19918;-83
2021/10/11 16:14:02;;;;;;;;;;;;;;;;;;4981626;28;20395;-83
2021/10/11 16:16:27;;;;;;;;;;;;;;;;;;4997210;28;20371;-83
2021/10/11 16:18:53;;;;;;;;;;;;;;;;;;5016303;28;20263;-83
2021/10/11 16:21:18;;;;;;;;;;;;;;;;;;4994227;28;20357;-83
2021/10/11 16:23:44;;;;;;;;;;;;;;;;;;4985751;28;19964;-82
2021/10/11 16:26:09;;;;;;;;;;;;;;;;;;5001904;28;20447;-83
2021/10/11 16:28:37;;;;;;;;;;;;;;;;;;4990025;28;19917;-84
2021/10/11 16:31:03;;;;;;;;;;;;;;;;;;4982249;28;20010;-83
2021/10/11 16:33:28;;;;;;;;;;;;;;;;;;4978629;28;19945;-83
2021/10/11 16:35:55;;;;;;;;;;;;;;;;;;4963002;28;19913;-83
2021/10/11 16:38:20;;;;;;;;;;;;;;;;;;4968739;28;20376;-84
2021/10/11 16:40:46;;;;;;;;;;;;;;;;;;4996229;28;19917;-84
2021/10/11 16:43:11;;;;;;;;;;;;;;;;;;4996327;28;19925;-83
2021/10/11 16:45:37;;;;;;;;;;;;;;;;;;4997672;28;19920;-83
2021/10/11 16:48:03;;;;;;;;;;;;;;;;;;4998093;28;19922;-82
2021/10/11 16:50:28;;;;;;;;;;;;;;;;;;4966007;28;19927;-82
2021/10/11 16:52:55;;;;;;;;;;;;;;;;;;4980591;28;20275;-82
2021/10/11 16:55:20;;;;;;;;;;;;;;;;;;4980901;28;19925;-82
2021/10/11 16:57:45;;;;;;;;;;;;;;;;;;4965022;28;19917;-83
2021/10/11 17:00:12;;;;;;;;;;;;;;;;;;4997747;28;19914;-82
2021/10/11 17:02:40;;;;;;;;;;;;;;;;;;4965881;28;20012;-83
2021/10/11 17:05:05;;;;;;;;;;;;;;;;;;4965796;28;19917;-82
2021/10/11 17:07:30;;;;;;;;;;;;;;;;;;4981034;28;20326;-82
2021/10/11 17:09:56;;;;;;;;;;;;;;;;;;4980399;28;19952;-83
2021/10/11 17:12:21;;;;;;;;;;;;;;;;;;4980825;28;19917;-83
2021/10/11 17:14:46;;;;;;;;;;;;;;;;;;4980450;28;19976;-82
2021/10/11 17:17:12;;;;;;;;;;;;;;;;;;4981386;28;19925;-82
2021/10/11 17:19:38;;;;;;;;;;;;;;;;;;4965366;28;19975;-82
2021/10/11 17:22:03;;;;;;;;;;;;;;;;;;4981480;28;19917;-82
2021/10/11 17:24:29;;;;;;;;;;;;;;;;;;4981446;28;20083;-82
2021/10/11 17:26:54;;;;;;;;;;;;;;;;;;4980356;28;19924;-84
2021/10/11 17:29:24;;;;;;;;;;;;;;;;;;4964686;28;20406;-84
2021/10/11 17:31:49;;;;;;;;;;;;;;;;;;4964648;28;19925;-78
2021/10/11 17:34:14;;;;;;;;;;;;;;;;;;4988645;28;19917;-79
2021/10/11 17:36:40;;;;;;;;;;;;;;;;;;4980881;28;19920;-78
2021/10/11 17:39:05;;;;;;;;;;;;;;;;;;4987389;28;19913;-78
2021/10/11 17:41:30;;;;;;;;;;;;;;;;;;4980908;28;19917;-78
2021/10/11 17:43:56;;;;;;;;;;;;;;;;;;4963953;28;19918;-83
2021/10/11 17:46:21;;;;;;;;;;;;;;;;;;4964420;28;19936;-82
2021/10/11 17:48:46;;;;;;;;;;;;;;;;;;4980924;28;19918;-81
2021/10/11 17:51:12;;;;;;;;;;;;;;;;;;4996936;28;19956;-81
2021/10/11 17:53:37;;;;;;;;;;;;;;;;;;4997040;28;19921;-81
2021/10/11 17:56:03;;;;;;;;;;;;;;;;;;4993276;28;19928;-81
2021/10/11 17:58:28;;;;;;;;;;;;;;;;;;4990614;28;19972;-82
2021/10/11 18:00:53;;;;;;;;;;;;;;;;;;4980766;28;19913;-81
2021/10/11 18:03:19;;;;;;;;;;;;;;;;;;4993470;28;19961;-81
2021/10/11 18:05:44;;;;;;;;;;;;;;;;;;4993403;28;19938;-81
2021/10/11 18:08:09;;;;;;;;;;;;;;;;;;4993700;28;19921;-81
2021/10/11 18:10:35;;;;;;;;;;;;;;;;;;4977234;28;19922;-81
2021/10/11 18:13:00;;;;;;;;;;;;;;;;;;4976686;28;19914;-81
2021/10/11 18:15:26;;;;;;;;;;;;;;;;;;4996392;28;19920;-81
2021/10/11 18:17:53;;;;;;;;;;;;;;;;;;4996452;28;20280;-82
2021/10/11 18:20:18;;;;;;;;;;;;;;;;;;4996351;28;19921;-81
2021/10/11 18:22:43;;;;;;;;;;;;;;;;;;4980268;28;19920;-82
2021/10/11 18:25:09;;;;;;;;;;;;;;;;;;4980363;28;20371;-81
2021/10/11 18:27:34;;;;;;;;;;;;;;;;;;4992613;28;19936;-81
2021/10/11 18:30:00;;;;;;;;;;;;;;;;;;4976698;28;19914;-81
2021/10/11 18:32:25;;;;;;;;;;;;;;;;;;4960830;28;19917;-82
2021/10/11 18:34:50;;;;;;;;;;;;;;;;;;4944796;28;20219;-81
2021/10/11 18:37:16;;;;;;;;;;;;;;;;;;4960572;28;20052;-81
2021/10/11 18:39:42;;;;;;;;;;;;;;;;;;4988106;28;19917;-81
2021/10/11 18:42:07;;;;;;;;;;;;;;;;;;4969658;28;19927;-81
2021/10/11 18:44:32;;;;;;;;;;;;;;;;;;4996146;28;20064;-81
2021/10/11 18:46:58;;;;;;;;;;;;;;;;;;4995910;28;19914;-81
2021/10/11 18:49:23;;;;;;;;;;;;;;;;;;4994877;28;19917;-80
2021/10/11 18:51:49;;;;;;;;;;;;;;;;;;4963549;28;20306;-79
2021/10/11 18:54:14;;;;;;;;;;;;;;;;;;4995782;28;19924;-80
2021/10/11 18:56:40;;;;;;;;;;;;;;;;;;4992215;28;19918;-82
2021/10/11 18:59:07;;;;;;;;;;;;;;;;;;4992413;28;19914;-81
2021/10/11 19:01:32;;;;;;;;;;;;;;;;;;4979753;28;19947;-81
2021/10/11 19:04:03;;;;;;;;;;;;;;;;;;5011869;28;19921;-81
2021/10/11 19:06:28;;;;;;;;;;;;;;;;;;4994891;28;19955;-80
2021/10/11 19:08:53;;;;;;;;;;;;;;;;;;4963250;28;20000;-81
2021/10/11 19:11:19;;;;;;;;;;;;;;;;;;4995130;28;19976;-80
2021/10/11 19:13:47;;;;;;;;;;;;;;;;;;4995425;28;19936;-80
2021/10/11 19:16:12;;;;;;;;;;;;;;;;;;4995411;28;20004;-81
2021/10/11 19:18:37;;;;;;;;;;;;;;;;;;4995520;28;20049;-81
2021/10/11 19:21:03;;;;;;;;;;;;;;;;;;4979125;28;19921;-81
2021/10/11 19:23:28;;;;;;;;;;;;;;;;;;4977997;28;19922;-82
2021/10/11 19:25:55;;;;;;;;;;;;;;;;;;4975418;28;20431;-81
2021/10/11 19:28:21;;;;;;;;;;;;;;;;;;4975734;28;20336;-81
2021/10/11 19:30:46;;;;;;;;;;;;;;;;;;4959847;28;19913;-81
2021/10/11 19:33:12;;;;;;;;;;;;;;;;;;4975797;28;19913;-81
2021/10/11 19:35:38;;;;;;;;;;;;;;;;;;4975784;28;19946;-81
2021/10/11 19:38:03;;;;;;;;;;;;;;;;;;4992252;28;19914;-81
2021/10/11 19:40:29;;;;;;;;;;;;;;;;;;5007587;28;19921;-81
2021/10/11 19:42:55;;;;;;;;;;;;;;;;;;4978644;28;20000;-81
2021/10/11 19:45:20;;;;;;;;;;;;;;;;;;5011376;28;19965;-81
2021/10/11 19:47:45;;;;;;;;;;;;;;;;;;4995076;28;19916;-80
2021/10/11 19:50:11;;;;;;;;;;;;;;;;;;4978882;28;20012;-81
2021/10/11 19:52:37;;;;;;;;;;;;;;;;;;4994963;28;19921;-81
2021/10/11 19:55:03;;;;;;;;;;;;;;;;;;4978298;28;20264;-80